createdAt,value
2023-04-01T00:00:59.478Z,0.62
2023-04-01T00:01:59.480Z,0.61
2023-04-01T00:02:59.548Z,0.62
2023-04-01T00:04:00.547Z,0.62
2023-04-01T00:04:59.540Z,0.61
2023-04-01T00:05:59.547Z,0.63
2023-04-01T00:06:59.565Z,0.63
2023-04-01T00:07:59.549Z,0.60
2023-04-01T00:08:59.548Z,0.61
2023-04-01T00:09:59.617Z,0.62
2023-04-01T00:10:59.649Z,0.61
2023-04-01T00:11:59.618Z,0.61
2023-04-01T00:12:59.655Z,0.61
2023-04-01T00:13:59.651Z,0.60
2023-04-01T00:14:59.698Z,0.61
2023-04-01T00:16:00.337Z,0.61
2023-04-01T00:16:59.699Z,0.60
2023-04-01T00:17:59.759Z,0.60
2023-04-01T00:18:59.689Z,0.59
2023-04-01T00:19:59.737Z,0.60
2023-04-01T00:20:59.753Z,0.59
2023-04-01T00:21:59.763Z,0.59
2023-04-01T00:22:59.767Z,0.60
2023-04-01T00:23:59.797Z,0.59
2023-04-01T00:24:59.796Z,0.57
2023-04-01T00:25:59.808Z,0.58
2023-04-01T00:26:59.827Z,0.59
2023-04-01T00:27:59.855Z,0.58
2023-04-01T00:28:59.852Z,0.58
2023-04-01T00:29:59.859Z,0.58
2023-04-01T00:30:59.924Z,0.57
2023-04-01T00:32:00.023Z,0.58
2023-04-01T00:32:59.999Z,0.58
2023-04-01T00:33:59.963Z,0.58
2023-04-01T00:34:59.945Z,0.57
2023-04-01T00:36:00.013Z,0.57
2023-04-01T00:37:00.008Z,0.57
2023-04-01T00:38:00.018Z,0.57
2023-04-01T00:39:00.006Z,0.56
2023-04-01T00:40:00.056Z,0.56
2023-04-01T00:41:00.129Z,0.57
2023-04-01T00:42:00.133Z,0.57
2023-04-01T00:43:00.212Z,0.57
2023-04-01T00:44:00.143Z,0.57
2023-04-01T00:45:00.178Z,0.56
2023-04-01T00:46:00.164Z,0.56
2023-04-01T00:47:00.297Z,0.56
2023-04-01T00:48:00.290Z,0.56
2023-04-01T00:49:00.191Z,0.57
2023-04-01T00:50:00.235Z,0.56
2023-04-01T00:51:00.257Z,0.57
2023-04-01T00:52:00.303Z,0.56
2023-04-01T00:53:00.275Z,0.56
2023-04-01T00:54:00.286Z,0.57
2023-04-01T00:55:00.315Z,0.57
2023-04-01T00:56:00.327Z,0.56
2023-04-01T00:57:00.398Z,0.56
2023-04-01T00:58:00.386Z,0.56
2023-04-01T00:59:00.372Z,0.57
2023-04-01T01:00:00.422Z,0.56
2023-04-01T01:01:00.410Z,0.55
2023-04-01T01:02:00.447Z,0.56
2023-04-01T01:03:00.428Z,0.55
2023-04-01T01:04:00.442Z,0.55
2023-04-01T01:05:00.488Z,0.55
2023-04-01T01:06:00.458Z,0.55
2023-04-01T01:07:00.484Z,0.55
2023-04-01T01:08:00.537Z,0.55
2023-04-01T01:09:00.549Z,0.55
2023-04-01T01:10:00.546Z,0.54
2023-04-01T01:11:00.571Z,0.55
2023-04-01T01:12:00.611Z,0.55
2023-04-01T01:13:00.649Z,0.56
2023-04-01T01:14:00.626Z,0.54
2023-04-01T01:15:00.672Z,0.56
2023-04-01T01:16:00.654Z,0.54
2023-04-01T01:17:00.697Z,0.54
2023-04-01T01:18:00.738Z,0.54
2023-04-01T01:19:00.689Z,0.55
2023-04-01T01:20:01.026Z,0.54
2023-04-01T01:21:00.735Z,0.54
2023-04-01T01:22:00.776Z,0.54
2023-04-01T01:23:00.770Z,0.53
2023-04-01T01:24:00.774Z,0.55
2023-04-01T01:25:00.810Z,0.54
2023-04-01T01:26:00.838Z,0.54
2023-04-01T01:27:00.866Z,0.53
2023-04-01T01:28:00.871Z,0.53
2023-04-01T01:29:00.869Z,0.54
2023-04-01T01:30:00.932Z,0.54
2023-04-01T01:31:00.967Z,0.54
2023-04-01T01:32:00.906Z,0.52
2023-04-01T01:33:00.926Z,0.53
2023-04-01T01:34:00.960Z,0.53
2023-04-01T01:35:00.961Z,0.52
2023-04-01T01:36:01.035Z,0.53
2023-04-01T01:37:00.981Z,0.53
2023-04-01T01:38:01.018Z,0.54
2023-04-01T01:39:01.021Z,0.53
2023-04-01T01:40:01.045Z,0.53
2023-04-01T01:41:01.096Z,0.52
2023-04-01T01:42:01.092Z,0.52
2023-04-01T01:43:01.121Z,0.53
2023-04-01T01:44:01.121Z,0.52
2023-04-01T01:45:01.177Z,0.53
2023-04-01T01:46:01.187Z,0.53
2023-04-01T01:47:01.194Z,0.52
2023-04-01T01:48:01.235Z,0.52
2023-04-01T01:49:01.220Z,0.52
2023-04-01T01:50:01.281Z,0.52
2023-04-01T01:51:01.240Z,0.53
2023-04-01T01:52:01.270Z,0.51
2023-04-01T01:53:01.315Z,0.52
2023-04-01T01:54:01.338Z,0.52
2023-04-01T01:55:01.335Z,0.52
2023-04-01T01:56:01.351Z,0.51
2023-04-01T01:57:01.383Z,0.52
2023-04-01T01:58:01.426Z,0.52
2023-04-01T01:59:01.412Z,0.52
2023-04-01T02:00:01.442Z,0.51
2023-04-01T02:01:01.456Z,0.52
2023-04-01T02:02:01.468Z,0.52
2023-04-01T02:03:01.493Z,0.52
2023-04-01T02:04:01.540Z,0.52
2023-04-01T02:05:01.573Z,0.52
2023-04-01T02:06:01.541Z,0.53
2023-04-01T02:07:01.550Z,0.52
2023-04-01T02:08:01.540Z,0.52
2023-04-01T02:09:01.540Z,0.52
2023-04-01T02:10:01.588Z,0.52
2023-04-01T02:11:01.649Z,0.50
2023-04-01T02:12:01.685Z,0.52
2023-04-01T02:13:01.643Z,0.50
2023-04-01T02:14:01.659Z,0.50
2023-04-01T02:15:01.717Z,0.51
2023-04-01T02:16:01.701Z,0.51
2023-04-01T02:17:01.704Z,0.50
2023-04-01T02:18:01.755Z,0.51
2023-04-01T02:19:01.780Z,0.50
2023-04-01T02:20:01.779Z,0.50
2023-04-01T02:21:01.806Z,0.51
2023-04-01T02:22:01.840Z,0.51
2023-04-01T02:23:01.815Z,0.51
2023-04-01T02:24:01.842Z,0.53
2023-04-01T02:25:01.873Z,0.51
2023-04-01T02:26:01.909Z,0.51
2023-04-01T02:27:01.930Z,0.52
2023-04-01T02:28:01.949Z,0.52
2023-04-01T02:29:01.970Z,0.52
2023-04-01T02:30:02.000Z,0.51
2023-04-01T02:31:01.987Z,0.51
2023-04-01T02:32:02.022Z,0.52
2023-04-01T02:33:02.118Z,0.52
2023-04-01T02:34:02.072Z,0.51
2023-04-01T02:35:02.110Z,0.50
2023-04-01T02:36:02.225Z,0.51
2023-04-01T02:37:02.102Z,0.52
2023-04-01T02:38:02.160Z,0.52
2023-04-01T02:39:02.151Z,0.53
2023-04-01T02:40:02.164Z,0.53
2023-04-01T02:41:02.235Z,0.51
2023-04-01T02:42:02.180Z,0.52
2023-04-01T02:43:02.213Z,0.55
2023-04-01T02:44:02.245Z,0.53
2023-04-01T02:45:02.280Z,0.54
2023-04-01T02:46:02.280Z,0.52
2023-04-01T02:47:02.382Z,0.53
2023-04-01T02:48:02.412Z,0.51
2023-04-01T02:49:02.383Z,0.53
2023-04-01T02:50:02.458Z,0.52
2023-04-01T02:51:02.458Z,0.52
2023-04-01T02:52:02.423Z,0.52
2023-04-01T02:53:02.437Z,0.52
2023-04-01T02:54:02.468Z,0.50
2023-04-01T02:55:02.519Z,0.52
2023-04-01T02:56:02.524Z,0.52
2023-04-01T02:57:02.569Z,0.52
2023-04-01T02:58:02.567Z,0.52
2023-04-01T02:59:02.589Z,0.52
2023-04-01T03:00:02.613Z,0.50
2023-04-01T03:01:02.707Z,0.51
2023-04-01T03:02:02.661Z,0.52
2023-04-01T03:03:02.810Z,0.52
2023-04-01T03:04:02.749Z,0.52
2023-04-01T03:05:02.737Z,0.52
2023-04-01T03:06:02.761Z,0.51
2023-04-01T03:07:02.788Z,0.50
2023-04-01T03:08:02.819Z,0.51
2023-04-01T03:09:02.837Z,0.51
2023-04-01T03:10:02.873Z,0.51
2023-04-01T03:11:02.866Z,0.51
2023-04-01T03:12:02.871Z,0.51
2023-04-01T03:13:02.906Z,0.52
2023-04-01T03:14:02.961Z,0.52
2023-04-01T03:15:10.929Z,0.51
2023-04-01T03:16:03.998Z,0.51
2023-04-01T03:17:02.985Z,0.51
2023-04-01T03:18:03.005Z,0.51
2023-04-01T03:19:02.935Z,0.51
2023-04-01T03:20:02.916Z,0.51
2023-04-01T03:21:02.933Z,0.52
2023-04-01T03:22:02.879Z,0.51
2023-04-01T03:23:02.884Z,0.51
2023-04-01T03:24:02.922Z,0.50
2023-04-01T03:25:02.892Z,0.52
2023-04-01T03:26:02.869Z,0.52
2023-04-01T03:27:02.880Z,0.52
2023-04-01T03:28:02.880Z,0.51
2023-04-01T03:29:02.867Z,0.51
2023-04-01T03:30:02.926Z,0.52
2023-04-01T03:31:02.880Z,0.52
2023-04-01T03:32:02.824Z,0.52
2023-04-01T03:33:02.959Z,0.51
2023-04-01T03:34:02.810Z,0.51
2023-04-01T03:35:02.879Z,0.52
2023-04-01T03:36:02.873Z,0.52
2023-04-01T03:37:02.917Z,0.52
2023-04-01T03:38:02.940Z,0.52
2023-04-01T03:39:02.988Z,0.52
2023-04-01T03:40:03.044Z,0.52
2023-04-01T03:41:03.038Z,0.51
2023-04-01T03:42:03.073Z,0.51
2023-04-01T03:43:03.174Z,0.53
2023-04-01T03:44:03.154Z,0.52
2023-04-01T03:45:03.126Z,0.53
2023-04-01T03:46:03.242Z,0.53
2023-04-01T03:47:03.205Z,0.51
2023-04-01T03:48:03.278Z,0.52
2023-04-01T03:49:03.246Z,0.53
2023-04-01T03:50:03.268Z,0.51
2023-04-01T03:51:03.327Z,0.52
2023-04-01T03:52:03.324Z,0.52
2023-04-01T03:53:03.350Z,0.52
2023-04-01T03:54:03.398Z,0.53
2023-04-01T03:55:03.410Z,0.52
2023-04-01T03:56:03.433Z,0.51
2023-04-01T03:57:03.520Z,0.52
2023-04-01T03:58:03.495Z,0.51
2023-04-01T03:59:03.515Z,0.52
2023-04-01T04:00:03.543Z,0.53
2023-04-01T04:01:03.563Z,0.53
2023-04-01T04:02:03.575Z,0.52
2023-04-01T04:03:03.741Z,0.52
2023-04-01T04:04:03.618Z,0.51
2023-04-01T04:05:03.649Z,0.52
2023-04-01T04:06:04.498Z,0.52
2023-04-01T04:07:03.687Z,0.51
2023-04-01T04:08:03.741Z,0.51
2023-04-01T04:09:03.743Z,0.51
2023-04-01T04:10:03.811Z,0.52
2023-04-01T04:11:03.832Z,0.52
2023-04-01T04:12:03.813Z,0.52
2023-04-01T04:13:03.828Z,0.52
2023-04-01T04:14:03.878Z,0.51
2023-04-01T04:15:03.911Z,0.52
2023-04-01T04:16:03.953Z,0.52
2023-04-01T04:17:03.943Z,0.52
2023-04-01T04:18:04.008Z,0.52
2023-04-01T04:19:04.015Z,0.51
2023-04-01T04:20:04.026Z,0.52
2023-04-01T04:21:04.041Z,0.51
2023-04-01T04:22:04.087Z,0.51
2023-04-01T04:23:04.109Z,0.51
2023-04-01T04:24:04.122Z,0.52
2023-04-01T04:25:04.208Z,0.51
2023-04-01T04:26:04.275Z,0.52
2023-04-01T04:27:04.202Z,0.53
2023-04-01T04:28:04.219Z,0.52
2023-04-01T04:29:04.246Z,0.53
2023-04-01T04:30:04.282Z,0.52
2023-04-01T04:31:04.276Z,0.52
2023-04-01T04:32:04.459Z,0.52
2023-04-01T04:33:04.380Z,0.52
2023-04-01T04:34:04.336Z,0.51
2023-04-01T04:35:04.387Z,0.52
2023-04-01T04:36:04.491Z,0.52
2023-04-01T04:37:04.471Z,0.51
2023-04-01T04:38:04.511Z,0.53
2023-04-01T04:39:04.602Z,0.53
2023-04-01T04:40:04.528Z,0.52
2023-04-01T04:41:04.556Z,0.52
2023-04-01T04:42:04.583Z,0.51
2023-04-01T04:43:04.611Z,0.52
2023-04-01T04:44:04.678Z,0.52
2023-04-01T04:45:04.679Z,0.52
2023-04-01T04:46:04.719Z,0.53
2023-04-01T04:47:04.782Z,0.53
2023-04-01T04:48:04.841Z,0.52
2023-04-01T04:49:04.835Z,0.51
2023-04-01T04:50:04.872Z,0.51
2023-04-01T04:51:04.858Z,0.54
2023-04-01T04:52:04.889Z,0.52
2023-04-01T04:53:04.889Z,0.52
2023-04-01T04:54:04.932Z,0.51
2023-04-01T04:55:04.990Z,0.51
2023-04-01T04:56:05.002Z,0.50
2023-04-01T04:57:05.098Z,0.53
2023-04-01T04:58:05.109Z,0.53
2023-04-01T04:59:05.096Z,0.51
2023-04-01T05:00:05.210Z,0.52
2023-04-01T05:01:05.155Z,0.52
2023-04-01T05:02:05.229Z,0.52
2023-04-01T05:03:05.276Z,0.52
2023-04-01T05:04:05.239Z,0.51
2023-04-01T05:05:05.264Z,0.52
2023-04-01T05:06:05.269Z,0.52
2023-04-01T05:07:05.304Z,0.52
2023-04-01T05:08:05.377Z,0.52
2023-04-01T05:09:05.404Z,0.51
2023-04-01T05:10:05.394Z,0.52
2023-04-01T05:11:05.441Z,0.51
2023-04-01T05:12:05.470Z,0.52
2023-04-01T05:13:05.470Z,0.52
2023-04-01T05:14:05.536Z,0.51
2023-04-01T05:15:05.571Z,0.52
2023-04-01T05:16:05.591Z,0.52
2023-04-01T05:17:05.725Z,0.53
2023-04-01T05:18:05.688Z,0.53
2023-04-01T05:19:05.654Z,0.52
2023-04-01T05:20:05.673Z,0.53
2023-04-01T05:21:05.757Z,0.51
2023-04-01T05:22:05.731Z,0.53
2023-04-01T05:23:05.766Z,0.53
2023-04-01T05:24:05.771Z,0.53
2023-04-01T05:25:05.826Z,0.52
2023-04-01T05:26:05.822Z,0.52
2023-04-01T05:27:05.862Z,0.51
2023-04-01T05:28:05.907Z,0.52
2023-04-01T05:29:05.925Z,0.52
2023-04-01T05:30:05.933Z,0.53
2023-04-01T05:31:06.045Z,0.52
2023-04-01T05:32:05.999Z,0.53
2023-04-01T05:33:06.109Z,0.53
2023-04-01T05:34:06.063Z,0.53
2023-04-01T05:35:06.072Z,0.53
2023-04-01T05:36:06.184Z,0.53
2023-04-01T05:37:06.139Z,0.52
2023-04-01T05:38:06.859Z,0.53
2023-04-01T05:39:06.188Z,0.52
2023-04-01T05:40:06.242Z,0.54
2023-04-01T05:41:06.216Z,0.53
2023-04-01T05:42:06.243Z,0.52
2023-04-01T05:43:06.295Z,0.53
2023-04-01T05:44:06.319Z,0.53
2023-04-01T05:45:06.345Z,0.53
2023-04-01T05:46:06.365Z,0.53
2023-04-01T05:47:06.383Z,0.52
2023-04-01T05:48:06.457Z,0.54
2023-04-01T05:49:06.453Z,0.53
2023-04-01T05:50:06.475Z,0.53
2023-04-01T05:51:06.474Z,0.53
2023-04-01T05:52:06.489Z,0.53
2023-04-01T05:53:06.543Z,0.52
2023-04-01T05:54:06.554Z,0.53
2023-04-01T05:55:06.612Z,0.53
2023-04-01T05:56:06.594Z,0.54
2023-04-01T05:57:06.653Z,0.53
2023-04-01T05:58:06.634Z,0.53
2023-04-01T05:59:06.707Z,0.53
2023-04-01T06:00:06.711Z,0.53
2023-04-01T06:01:11.500Z,0.53
2023-04-01T06:02:07.690Z,0.53
2023-04-01T06:03:06.787Z,0.53
2023-04-01T06:04:06.915Z,0.54
2023-04-01T06:05:06.672Z,0.54
2023-04-01T06:06:06.741Z,0.53
2023-04-01T06:07:06.704Z,0.52
2023-04-01T06:08:06.671Z,0.54
2023-04-01T06:09:06.650Z,0.54
2023-04-01T06:10:06.704Z,0.53
2023-04-01T06:11:06.647Z,0.54
2023-04-01T06:12:06.663Z,0.53
2023-04-01T06:13:06.650Z,0.53
2023-04-01T06:14:06.675Z,0.54
2023-04-01T06:15:06.629Z,0.53
2023-04-01T06:16:06.648Z,0.53
2023-04-01T06:17:06.629Z,0.52
2023-04-01T06:18:06.611Z,0.53
2023-04-01T06:19:06.573Z,0.52
2023-04-01T06:20:06.633Z,0.52
2023-04-01T06:21:06.606Z,0.54
2023-04-01T06:22:06.630Z,0.54
2023-04-01T06:23:06.651Z,0.53
2023-04-01T06:24:06.666Z,0.52
2023-04-01T06:25:06.718Z,0.54
2023-04-01T06:26:06.704Z,0.53
2023-04-01T06:27:06.765Z,0.53
2023-04-01T06:28:08.989Z,0.53
2023-04-01T06:29:06.817Z,0.54
2023-04-01T06:30:06.874Z,0.53
2023-04-01T06:31:06.926Z,0.53
2023-04-01T06:32:06.944Z,0.54
2023-04-01T06:33:06.995Z,0.54
2023-04-01T06:34:06.958Z,0.53
2023-04-01T06:35:06.994Z,0.54
2023-04-01T06:36:07.125Z,0.54
2023-04-01T06:37:07.053Z,0.52
2023-04-01T06:38:07.068Z,0.53
2023-04-01T06:39:08.395Z,0.53
2023-04-01T06:40:07.078Z,0.54
2023-04-01T06:41:07.061Z,0.53
2023-04-01T06:42:07.051Z,0.53
2023-04-01T06:43:07.044Z,0.54
2023-04-01T06:44:07.030Z,0.54
2023-04-01T06:45:07.040Z,0.53
2023-04-01T06:46:07.048Z,0.54
2023-04-01T06:47:07.053Z,0.53
2023-04-01T06:48:07.063Z,0.53
2023-04-01T06:49:07.021Z,0.53
2023-04-01T06:50:06.976Z,0.53
2023-04-01T06:51:06.999Z,0.53
2023-04-01T06:52:06.967Z,0.53
2023-04-01T06:53:06.962Z,0.53
2023-04-01T06:54:06.989Z,0.53
2023-04-01T06:55:06.950Z,0.53
2023-04-01T06:56:06.932Z,0.53
2023-04-01T06:57:06.973Z,0.53
2023-04-01T06:58:06.916Z,0.55
2023-04-01T06:59:06.920Z,0.54
2023-04-01T07:00:06.908Z,0.54
2023-04-01T07:01:06.923Z,0.53
2023-04-01T07:02:06.900Z,0.53
2023-04-01T07:03:07.129Z,0.54
2023-04-01T07:04:06.957Z,0.53
2023-04-01T07:05:06.913Z,0.52
2023-04-01T07:06:06.851Z,0.54
2023-04-01T07:07:06.867Z,0.52
2023-04-01T07:08:06.852Z,0.53
2023-04-01T07:09:06.863Z,0.53
2023-04-01T07:10:06.855Z,0.53
2023-04-01T07:11:06.855Z,0.53
2023-04-01T07:12:06.856Z,0.54
2023-04-01T07:13:06.837Z,0.52
2023-04-01T07:14:06.797Z,0.52
2023-04-01T07:15:06.852Z,0.53
2023-04-01T07:16:06.795Z,0.53
2023-04-01T07:17:06.884Z,0.54
2023-04-01T07:18:06.876Z,0.53
2023-04-01T07:19:06.802Z,0.53
2023-04-01T07:20:06.816Z,0.53
2023-04-01T07:21:06.769Z,0.54
2023-04-01T07:22:06.826Z,0.53
2023-04-01T07:23:06.752Z,0.54
2023-04-01T07:24:06.757Z,0.53
2023-04-01T07:25:06.746Z,0.53
2023-04-01T07:26:06.741Z,0.53
2023-04-01T07:27:06.712Z,0.54
2023-04-01T07:28:06.745Z,0.53
2023-04-01T07:29:06.720Z,0.53
2023-04-01T07:30:06.697Z,0.53
2023-04-01T07:31:06.720Z,0.54
2023-04-01T07:32:06.672Z,0.54
2023-04-01T07:33:06.742Z,0.54
2023-04-01T07:34:06.695Z,0.53
2023-04-01T07:35:06.662Z,0.52
2023-04-01T07:36:06.685Z,0.54
2023-04-01T07:37:06.644Z,0.53
2023-04-01T07:38:06.656Z,0.53
2023-04-01T07:39:06.652Z,0.53
2023-04-01T07:40:06.638Z,0.54
2023-04-01T07:41:06.643Z,0.54
2023-04-01T07:42:06.624Z,0.54
2023-04-01T07:43:06.626Z,0.53
2023-04-01T07:44:06.572Z,0.53
2023-04-01T07:45:06.598Z,0.55
2023-04-01T07:46:06.610Z,0.54
2023-04-01T07:47:06.588Z,0.54
2023-04-01T07:48:06.588Z,0.54
2023-04-01T07:49:06.594Z,0.54
2023-04-01T07:50:06.550Z,0.54
2023-04-01T07:51:06.555Z,0.54
2023-04-01T07:52:06.561Z,0.54
2023-04-01T07:53:06.622Z,0.54
2023-04-01T07:54:06.598Z,0.53
2023-04-01T07:55:06.626Z,0.54
2023-04-01T07:56:06.656Z,0.55
2023-04-01T07:57:06.753Z,0.53
2023-04-01T07:58:06.710Z,0.53
2023-04-01T07:59:06.705Z,0.54
2023-04-01T08:00:06.704Z,0.54
2023-04-01T08:01:06.693Z,0.53
2023-04-01T08:02:06.762Z,0.53
2023-04-01T08:03:06.848Z,0.54
2023-04-01T08:04:06.975Z,0.55
2023-04-01T08:05:06.792Z,0.53
2023-04-01T08:06:06.808Z,0.55
2023-04-01T08:07:06.816Z,0.54
2023-04-01T08:08:06.819Z,0.54
2023-04-01T08:09:06.872Z,0.53
2023-04-01T08:10:06.884Z,0.54
2023-04-01T08:11:06.877Z,0.54
2023-04-01T08:12:06.901Z,0.54
2023-04-01T08:13:06.913Z,0.53
2023-04-01T08:14:06.929Z,0.53
2023-04-01T08:15:06.933Z,0.54
2023-04-01T08:16:06.986Z,0.54
2023-04-01T08:17:07.131Z,0.54
2023-04-01T08:18:07.019Z,0.54
2023-04-01T08:19:06.956Z,0.54
2023-04-01T08:20:06.990Z,0.53
2023-04-01T08:21:06.997Z,0.54
2023-04-01T08:22:07.014Z,0.54
2023-04-01T08:23:07.049Z,0.55
2023-04-01T08:24:07.067Z,0.55
2023-04-01T08:25:07.106Z,0.55
2023-04-01T08:26:07.106Z,0.55
2023-04-01T08:27:07.076Z,0.55
2023-04-01T08:28:07.113Z,0.55
2023-04-01T08:29:07.135Z,0.55
2023-04-01T08:30:08.307Z,0.55
2023-04-01T08:31:07.156Z,0.55
2023-04-01T08:32:07.183Z,0.56
2023-04-01T08:33:07.164Z,0.54
2023-04-01T08:34:07.129Z,0.55
2023-04-01T08:35:07.105Z,0.54
2023-04-01T08:36:07.187Z,0.54
2023-04-01T08:37:07.108Z,0.55
2023-04-01T08:38:07.080Z,0.54
2023-04-01T08:39:07.112Z,0.53
2023-04-01T08:40:07.078Z,0.54
2023-04-01T08:41:07.076Z,0.54
2023-04-01T08:42:07.089Z,0.54
2023-04-01T08:43:07.060Z,0.53
2023-04-01T08:44:07.051Z,0.53
2023-04-01T08:45:07.033Z,0.53
2023-04-01T08:46:07.077Z,0.53
2023-04-01T08:47:07.035Z,0.53
2023-04-01T08:48:07.056Z,0.53
2023-04-01T08:49:07.006Z,0.55
2023-04-01T08:50:07.062Z,0.53
2023-04-01T08:51:07.025Z,0.53
2023-04-01T08:52:07.020Z,0.52
2023-04-01T08:53:06.992Z,0.53
2023-04-01T08:54:06.975Z,0.54
2023-04-01T08:55:07.043Z,0.54
2023-04-01T08:56:06.989Z,0.52
2023-04-01T08:57:07.018Z,0.54
2023-04-01T08:58:06.995Z,0.53
2023-04-01T08:59:06.965Z,0.53
2023-04-01T09:00:06.963Z,0.54
2023-04-01T09:01:06.941Z,0.55
2023-04-01T09:02:06.934Z,0.54
2023-04-01T09:03:07.212Z,0.54
2023-04-01T09:04:06.982Z,0.53
2023-04-01T09:05:06.942Z,0.52
2023-04-01T09:06:06.917Z,0.54
2023-04-01T09:07:06.913Z,0.53
2023-04-01T09:08:06.881Z,0.51
2023-04-01T09:09:06.879Z,0.51
2023-04-01T09:10:06.920Z,0.51
2023-04-01T09:11:06.929Z,0.52
2023-04-01T09:12:06.928Z,0.51
2023-04-01T09:13:06.849Z,0.50
2023-04-01T09:14:06.873Z,0.51
2023-04-01T09:15:06.859Z,0.52
2023-04-01T09:16:06.861Z,0.51
2023-04-01T09:17:06.809Z,0.52
2023-04-01T09:18:06.894Z,0.53
2023-04-01T09:19:06.987Z,0.53
2023-04-01T09:20:06.908Z,0.52
2023-04-01T09:21:06.817Z,0.52
2023-04-01T09:22:06.818Z,0.52
2023-04-01T09:23:06.818Z,0.53
2023-04-01T09:24:06.905Z,0.53
2023-04-01T09:25:06.780Z,0.53
2023-04-01T09:26:06.840Z,0.52
2023-04-01T09:27:06.804Z,0.51
2023-04-01T09:28:06.807Z,0.52
2023-04-01T09:29:06.741Z,0.52
2023-04-01T09:30:06.833Z,0.51
2023-04-01T09:31:06.804Z,0.51
2023-04-01T09:32:06.743Z,0.52
2023-04-01T09:33:06.819Z,0.51
2023-04-01T09:34:06.750Z,0.52
2023-04-01T09:35:06.710Z,0.51
2023-04-01T09:36:06.803Z,0.52
2023-04-01T09:37:06.708Z,0.52
2023-04-01T09:38:06.717Z,0.51
2023-04-01T09:39:06.691Z,0.50
2023-04-01T09:40:06.719Z,0.51
2023-04-01T09:41:06.694Z,0.51
2023-04-01T09:42:06.711Z,0.52
2023-04-01T09:43:06.689Z,0.51
2023-04-01T09:44:06.680Z,0.52
2023-04-01T09:45:06.663Z,0.51
2023-04-01T09:46:06.674Z,0.52
2023-04-01T09:47:06.636Z,0.52
2023-04-01T09:48:06.713Z,0.51
2023-04-01T09:49:06.680Z,0.52
2023-04-01T09:50:06.637Z,0.52
2023-04-01T09:51:06.667Z,0.51
2023-04-01T09:52:06.608Z,0.50
2023-04-01T09:53:06.614Z,0.51
2023-04-01T09:54:06.602Z,0.52
2023-04-01T09:55:06.616Z,0.51
2023-04-01T09:56:06.597Z,0.50
2023-04-01T09:57:06.595Z,0.51
2023-04-01T09:58:06.554Z,0.52
2023-04-01T09:59:06.583Z,0.53
2023-04-01T10:00:06.581Z,0.54
2023-04-01T10:01:06.546Z,0.56
2023-04-01T10:02:06.624Z,0.55
2023-04-01T10:03:06.607Z,0.55
2023-04-01T10:04:06.533Z,0.53
2023-04-01T10:05:06.688Z,0.53
2023-04-01T10:06:06.571Z,0.54
2023-04-01T10:07:06.483Z,0.56
2023-04-01T10:08:06.503Z,0.54
2023-04-01T10:09:06.496Z,0.56
2023-04-01T10:10:06.491Z,0.55
2023-04-01T10:11:06.522Z,0.55
2023-04-01T10:12:06.485Z,0.56
2023-04-01T10:13:06.473Z,0.56
2023-04-01T10:14:06.501Z,0.54
2023-04-01T10:15:06.476Z,0.53
2023-04-01T10:16:06.544Z,0.52
2023-04-01T10:17:06.427Z,0.52
2023-04-01T10:18:06.476Z,0.51
2023-04-01T10:19:06.458Z,0.51
2023-04-01T10:20:06.434Z,0.52
2023-04-01T10:21:06.465Z,0.54
2023-04-01T10:22:06.424Z,0.53
2023-04-01T10:23:06.406Z,0.51
2023-04-01T10:24:06.392Z,0.52
2023-04-01T10:25:06.510Z,0.51
2023-04-01T10:26:06.365Z,0.52
2023-04-01T10:27:06.367Z,0.53
2023-04-01T10:28:06.372Z,0.53
2023-04-01T10:29:06.371Z,0.52
2023-04-01T10:30:06.349Z,0.53
2023-04-01T10:31:06.349Z,0.51
2023-04-01T10:32:06.418Z,0.52
2023-04-01T10:33:06.405Z,0.54
2023-04-01T10:34:06.467Z,0.54
2023-04-01T10:35:06.454Z,0.52
2023-04-01T10:36:06.506Z,0.53
2023-04-01T10:37:06.545Z,0.53
2023-04-01T10:38:06.536Z,0.53
2023-04-01T10:39:06.583Z,0.53
2023-04-01T10:40:06.647Z,0.54
2023-04-01T10:41:06.608Z,0.54
2023-04-01T10:42:06.670Z,0.53
2023-04-01T10:43:06.675Z,0.54
2023-04-01T10:44:06.726Z,0.53
2023-04-01T10:45:06.748Z,0.52
2023-04-01T10:46:06.772Z,0.50
2023-04-01T10:47:06.796Z,0.52
2023-04-01T10:48:06.868Z,0.53
2023-04-01T10:49:06.857Z,0.56
2023-04-01T10:50:06.904Z,0.57
2023-04-01T10:51:06.919Z,0.56
2023-04-01T10:52:06.987Z,0.55
2023-04-01T10:53:07.430Z,0.57
2023-04-01T10:54:07.039Z,0.57
2023-04-01T10:55:07.121Z,0.56
2023-04-01T10:56:07.196Z,0.58
2023-04-01T10:57:07.253Z,0.60
2023-04-01T10:58:07.280Z,0.56
2023-04-01T10:59:07.333Z,0.58
2023-04-01T11:00:07.406Z,0.56
2023-04-01T11:01:07.437Z,0.56
2023-04-01T11:02:11.321Z,0.54
2023-04-01T11:03:07.581Z,0.54
2023-04-01T11:04:07.472Z,0.52
2023-04-01T11:05:07.495Z,0.54
2023-04-01T11:06:07.441Z,0.53
2023-04-01T11:07:07.481Z,0.53
2023-04-01T11:08:07.513Z,0.53
2023-04-01T11:09:07.436Z,0.54
2023-04-01T11:10:07.428Z,0.53
2023-04-01T11:11:07.413Z,0.55
2023-04-01T11:12:07.438Z,0.57
2023-04-01T11:13:07.401Z,0.56
2023-04-01T11:14:07.374Z,0.57
2023-04-01T11:15:07.365Z,0.56
2023-04-01T11:16:07.474Z,0.57
2023-04-01T11:17:07.434Z,0.57
2023-04-01T11:18:07.562Z,0.58
2023-04-01T11:19:07.527Z,0.57
2023-04-01T11:20:07.585Z,0.59
2023-04-01T11:21:07.640Z,0.58
2023-04-01T11:22:07.716Z,0.59
2023-04-01T11:23:07.748Z,0.58
2023-04-01T11:24:07.882Z,0.59
2023-04-01T11:25:07.866Z,0.58
2023-04-01T11:26:08.190Z,0.59
2023-04-01T11:27:08.095Z,0.58
2023-04-01T11:28:08.054Z,0.58
2023-04-01T11:29:08.101Z,0.59
2023-04-01T11:30:08.109Z,0.59
2023-04-01T11:31:08.212Z,0.57
2023-04-01T11:32:08.224Z,0.57
2023-04-01T11:33:08.329Z,0.57
2023-04-01T11:34:08.352Z,0.58
2023-04-01T11:35:08.372Z,0.58
2023-04-01T11:36:08.429Z,0.59
2023-04-01T11:37:08.504Z,0.57
2023-04-01T11:38:08.547Z,0.58
2023-04-01T11:39:08.577Z,0.57
2023-04-01T11:40:08.638Z,0.57
2023-04-01T11:41:08.693Z,0.57
2023-04-01T11:42:08.719Z,0.57
2023-04-01T11:43:09.362Z,0.55
2023-04-01T11:44:08.869Z,0.56
2023-04-01T11:45:08.874Z,0.56
2023-04-01T11:46:09.007Z,0.56
2023-04-01T11:47:08.992Z,0.56
2023-04-01T11:48:09.038Z,0.56
2023-04-01T11:49:09.095Z,0.55
2023-04-01T11:50:09.134Z,0.56
2023-04-01T11:51:09.261Z,0.53
2023-04-01T11:52:09.197Z,0.55
2023-04-01T11:53:09.260Z,0.55
2023-04-01T11:54:09.297Z,0.55
2023-04-01T11:55:09.361Z,0.56
2023-04-01T11:56:09.445Z,0.56
2023-04-01T11:57:09.502Z,0.55
2023-04-01T11:58:09.514Z,0.57
2023-04-01T11:59:09.536Z,0.54
2023-04-01T12:00:09.604Z,0.56
2023-04-01T12:01:09.649Z,0.55
2023-04-01T12:02:09.723Z,0.55
2023-04-01T12:03:09.887Z,0.56
2023-04-01T12:04:09.955Z,0.56
2023-04-01T12:05:09.841Z,0.56
2023-04-01T12:06:09.900Z,0.55
2023-04-01T12:07:09.916Z,0.56
2023-04-01T12:08:09.962Z,0.56
2023-04-01T12:09:09.982Z,0.55
2023-04-01T12:10:10.037Z,0.55
2023-04-01T12:11:10.119Z,0.56
2023-04-01T12:12:10.148Z,0.56
2023-04-01T12:13:10.172Z,0.56
2023-04-01T12:14:10.197Z,0.55
2023-04-01T12:15:10.243Z,0.56
2023-04-01T12:16:10.331Z,0.56
2023-04-01T12:17:10.288Z,0.55
2023-04-01T12:18:10.418Z,0.55
2023-04-01T12:19:10.411Z,0.56
2023-04-01T12:20:11.468Z,0.56
2023-04-01T12:21:10.469Z,0.55
2023-04-01T12:22:10.513Z,0.56
2023-04-01T12:23:10.514Z,0.55
2023-04-01T12:24:10.642Z,0.55
2023-04-01T12:25:10.608Z,0.56
2023-04-01T12:26:10.677Z,0.54
2023-04-01T12:27:10.717Z,0.55
2023-04-01T12:28:10.701Z,0.55
2023-04-01T12:29:10.784Z,0.54
2023-04-01T12:30:10.855Z,0.51
2023-04-01T12:31:10.855Z,0.50
2023-04-01T12:32:10.932Z,0.50
2023-04-01T12:33:10.960Z,0.50
2023-04-01T12:34:10.941Z,0.50
2023-04-01T12:35:11.010Z,0.51
2023-04-01T12:36:11.077Z,0.51
2023-04-01T12:37:11.056Z,0.50
2023-04-01T12:38:11.103Z,0.50
2023-04-01T12:39:11.160Z,0.50
2023-04-01T12:40:11.206Z,0.50
2023-04-01T12:41:11.248Z,0.52
2023-04-01T12:42:11.275Z,0.53
2023-04-01T12:43:11.278Z,0.53
2023-04-01T12:44:11.340Z,0.60
2023-04-01T12:45:11.368Z,0.65
2023-04-01T12:46:11.497Z,0.65
2023-04-01T12:47:11.463Z,0.65
2023-04-01T12:48:11.504Z,0.59
2023-04-01T12:49:11.550Z,0.58
2023-04-01T12:50:11.559Z,0.52
2023-04-01T12:51:11.621Z,0.52
2023-04-01T12:52:11.668Z,0.51
2023-04-01T12:53:11.700Z,0.50
2023-04-01T12:54:11.748Z,0.50
2023-04-01T12:55:11.808Z,0.51
2023-04-01T12:56:11.863Z,0.55
2023-04-01T12:57:12.037Z,0.50
2023-04-01T12:58:11.933Z,0.52
2023-04-01T12:59:11.965Z,0.55
2023-04-01T13:00:12.053Z,0.54
2023-04-01T13:01:12.119Z,0.60
2023-04-01T13:02:12.140Z,0.61
2023-04-01T13:03:12.217Z,0.61
2023-04-01T13:04:12.264Z,0.60
2023-04-01T13:05:12.289Z,0.62
2023-04-01T13:06:12.299Z,0.64
2023-04-01T13:07:12.351Z,0.60
2023-04-01T13:08:12.380Z,0.57
2023-04-01T13:09:12.450Z,0.57
2023-04-01T13:10:12.484Z,0.51
2023-04-01T13:11:12.728Z,0.50
2023-04-01T13:12:12.527Z,0.51
2023-04-01T13:13:12.590Z,0.51
2023-04-01T13:14:21.672Z,0.50
2023-04-01T13:15:13.610Z,0.49
2023-04-01T13:16:12.648Z,0.49
2023-04-01T13:17:12.591Z,0.46
2023-04-01T13:18:12.587Z,0.46
2023-04-01T13:19:12.607Z,0.48